NCAR-RAP Real-Time Weather Data

Output produced by METARs form (14 October 2019  22:50 UTC)
found at http://weather.rap.ucar.edu/surface/
 
KLIT 142153Z 16005KT 10SM BKN120 OVC200 20/11 A3004 RMK AO2 SLP173 BINOVC T02000111
KLIT 142053Z 13006KT 10SM BKN120 BKN200 20/11 A3004 RMK AO2 SLP173 T02000106 56016
KLIT 141953Z 15005KT 10SM BKN120 OVC200 20/11 A3005 RMK AO2 SLP177 BINOVC T02000106
KLIT 141853Z 17006KT 10SM BKN120 BKN200 20/11 A3006 RMK AO2 SLP181 T02000106
KLIT 141753Z 13006KT 10SM SCT120 BKN200 19/11 A3009 RMK AO2 SLP189 T01940111 10194 20072 58010
KLIT 141653Z 14006KT 10SM BKN200 19/11 A3010 RMK AO2 SLP195 T01890111
KLIT 141553Z 15003KT 10SM BKN200 17/11 A3012 RMK AO2 SLP200 T01670111
KLIT 141453Z 13003KT 10SM BKN200 14/11 A3012 RMK AO2 SLP201 T01390111 51006
KLIT 141353Z 00000KT 10SM BKN200 12/10 A3011 RMK AO2 SLP200 T01170100
KLIT 141253Z 00000KT 10SM FEW001 BKN200 08/08 A3011 RMK AO2 SLP197 T00830078
KLIT 141153Z 00000KT 10SM FEW001 BKN200 08/07 A3010 RMK AO2 SLP194 T00780072 10089 20067 53007
KLIT 141053Z 18003KT 10SM MIFG FEW001 SCT250 07/07 A3009 RMK AO2 SLP192 T00720067
KLIT 141006Z 00000KT 10SM MIFG SCT001 BKN250 07/07 A3008 RMK AO2 T00720067
KLIT 140953Z 00000KT 10SM MIFG FEW250 07/07 A3008 RMK AO2 SLP187 T00720067
KLIT 140853Z 00000KT 10SM MIFG CLR 08/07 A3008 RMK AO2 SLP186 T00780072 55000
KLIT 140753Z 16004KT 10SM CLR 08/07 A3008 RMK AO2 SLP185 T00780072
KLIT 140653Z 15003KT 10SM CLR 08/08 A3008 RMK AO2 SLP186 T00830078
KLIT 140553Z 14004KT 10SM CLR 09/08 A3008 RMK AO2 SLP186 T00890078 10161 20089 402220033 50006
KLIT 140453Z 21003KT 10SM CLR 11/09 A3008 RMK AO2 SLP188 T01060089
KLIT 140353Z 21005KT 10SM CLR 11/09 A3007 RMK AO2 SLP186 T01060089
KLIT 140253Z 17004KT 10SM CLR 11/09 A3006 RMK AO2 SLP181 T01110094 52017
KLIT 140153Z 20004KT 10SM CLR 13/09 A3004 RMK AO2 SLP176 T01280094
KLIT 140053Z 15004KT 10SM CLR 13/08 A3003 RMK AO2 SLP170 T01280083
KLIT 132353Z 18005KT 10SM FEW030 16/08 A3001 RMK AO2 SLP164 FU FEW030 FU LYR W-N T01610078 10222 20161 53005
KLIT 132253Z 17005KT 10SM CLR 19/06 A3000 RMK AO2 SLP161 FU VSB DSNT W-NW T01940056
KLIT 132153Z 16007KT 10SM FEW150 21/05 A2999 RMK AO2 SLP159 FU VSB DSNT W T02110050
KLIT 132053Z VRB04KT 10SM FEW080 FEW150 22/04 A3000 RMK AO2 SLP159 T02170039 56024
KLIT 131953Z 27006KT 10SM FEW080 FEW150 21/04 A3001 RMK AO2 SLP164 T02110044
KLIT 131853Z 20009KT 10SM FEW080 FEW150 21/05 A3004 RMK AO2 SLP176 T02060050
KLIT 131753Z 24009KT 10SM FEW080 FEW150 19/03 A3007 RMK AO2 SLP183 T01890033 10194 20039 58017
KLIT 131653Z COR 21009KT 10SM FEW080 SCT130 18/04 A3010 RMK AO2 SLP196 T01780039
KLIT 131553Z 24007KT 210V270 10SM FEW080 SCT130 16/03 A3012 RMK AO2 SLP200 T01610033
KLIT 131453Z 24008KT 10SM SCT080 BKN130 13/04 A3012 RMK AO2 SLP200 T01330044 53008
KLIT 131353Z 22003KT 10SM FEW080 SCT120 08/05 A3010 RMK AO2 SLP193 T00830050
KLIT 131253Z 24004KT 10SM FEW080 SCT120 04/03 A3008 RMK AO2 SLP190 T00440033
KLIT 131153Z 00000KT 10SM FEW150 04/03 A3009 RMK AO2 SLP193 T00440033 10067 20033 53006
KLIT 131053Z 24003KT 10SM CLR 05/03 A3008 RMK AO2 SLP188 T00500033
KLIT 130953Z 22004KT 10SM CLR 04/03 A3008 RMK AO2 SLP187 T00440028
KLIT 130853Z 25003KT 10SM CLR 06/03 A3007 RMK AO2 SLP186 T00560033 53001
KLIT 130753Z 23003KT 10SM CLR 05/04 A3006 RMK AO2 SLP181 T00500039
KLIT 130653Z 00000KT 10SM CLR 06/04 A3006 RMK AO2 SLP181 T00610044
KLIT 130553Z 00000KT 10SM CLR 07/04 A3007 RMK AO2 SLP185 T00670044 10122 20056 401780028 58008
KLIT 130453Z 22003KT 10SM CLR 07/05 A3009 RMK AO2 SLP191 T00670050
KLIT 130353Z 00000KT 10SM CLR 07/04 A3010 RMK AO2 SLP194 T00720044
KLIT 130253Z 00000KT 10SM CLR 07/05 A3009 RMK AO2 SLP193 T00720050 55002
KLIT 130153Z 00000KT 10SM CLR 09/03 A3009 RMK AO2 SLP192 T00940028
KLIT 130053Z 00000KT 10SM CLR 11/03 A3010 RMK AO2 SLP196 T01060033
KLIT 122353Z 17005KT 10SM CLR 12/02 A3010 RMK AO2 SLP196 T01220022 10178 20122 58007
KLIT 122253Z 17005KT 10SM CLR 16/M01 A3011 RMK AO2 SLP199 T01561011